createdAt,value
2022-10-01T13:16:58.394Z,18.17
2022-10-01T13:17:35.926Z,18.02
2022-10-01T13:18:14.067Z,18.30
2022-10-01T13:18:56.397Z,17.70
2022-10-01T13:19:33.998Z,18.67
2022-10-01T13:20:12.855Z,18.27
2022-10-01T13:20:54.754Z,19.38
2022-10-01T13:21:33.431Z,17.67
2022-10-01T13:22:10.820Z,18.02
2022-10-01T13:22:47.640Z,17.08
2022-10-01T13:23:27.872Z,17.67
2022-10-01T13:24:04.529Z,18.42
2022-10-01T13:24:42.753Z,18.02
2022-10-01T13:25:23.657Z,17.05
2022-10-01T13:26:03.931Z,17.50
2022-10-01T13:26:42.617Z,17.23
2022-10-01T13:27:20.590Z,17.23
2022-10-01T13:27:57.519Z,18.02
2022-10-01T13:28:37.690Z,17.63
2022-10-01T13:29:18.966Z,18.15
2022-10-01T13:29:59.340Z,16.42
2022-10-01T13:30:36.506Z,18.38
2022-10-01T13:31:12.766Z,17.48
2022-10-01T13:31:58.388Z,16.92
2022-10-01T13:32:33.907Z,17.48
2022-10-01T13:33:23.788Z,17.58
2022-10-01T13:33:57.743Z,18.27
2022-10-01T13:34:38.911Z,18.13
2022-10-01T13:35:25.608Z,17.67
2022-10-01T13:36:00.436Z,16.77
2022-10-01T13:36:36.889Z,17.33
2022-10-01T13:37:12.189Z,16.25
2022-10-01T13:37:48.216Z,16.90
2022-10-01T13:38:29.919Z,17.77
2022-10-01T13:39:03.911Z,19.42
2022-10-01T13:39:44.202Z,19.15
2022-10-01T13:40:23.450Z,17.67
2022-10-01T13:41:02.092Z,16.75
2022-10-01T13:41:36.077Z,16.38
2022-10-01T13:42:17.489Z,16.85
2022-10-01T13:42:52.827Z,16.00
2022-10-01T13:43:26.501Z,17.52
2022-10-01T13:44:06.303Z,18.45
2022-10-01T13:44:41.487Z,17.60
2022-10-01T13:45:22.157Z,18.85
2022-10-01T13:45:59.062Z,20.63
2022-10-01T13:46:35.174Z,18.75
2022-10-01T13:47:13.926Z,18.40
2022-10-01T13:47:48.954Z,17.45
2022-10-01T13:48:24.698Z,16.65
2022-10-01T13:49:03.670Z,16.20
2022-10-01T13:49:38.564Z,15.93
2022-10-01T13:50:23.252Z,16.55
2022-10-01T13:51:03.767Z,16.30
2022-10-01T13:51:39.237Z,16.13
2022-10-01T13:52:20.498Z,15.43
2022-10-01T13:53:06.518Z,16.17
2022-10-01T13:53:48.093Z,16.17
2022-10-01T13:54:28.310Z,16.05
2022-10-01T13:55:02.510Z,15.90
2022-10-01T13:55:43.047Z,15.35
2022-10-01T13:56:30.442Z,15.75
2022-10-01T13:57:10.521Z,15.98
2022-10-01T13:57:46.286Z,16.02
2022-10-01T13:58:23.525Z,15.77
2022-10-01T13:58:57.871Z,15.32
2022-10-01T13:59:34.710Z,15.60
2022-10-01T14:00:23.717Z,14.57
2022-10-01T14:01:01.399Z,15.25
2022-10-01T14:01:41.636Z,15.38
2022-10-01T14:02:34.740Z,15.40
2022-10-01T14:03:28.084Z,14.57
2022-10-01T14:04:06.795Z,14.63
2022-10-01T14:04:40.036Z,15.50
2022-10-01T14:05:42.901Z,15.23
2022-10-01T14:06:19.510Z,14.55
2022-10-01T14:06:55.770Z,13.95
2022-10-01T14:07:32.171Z,14.98
2022-10-01T14:08:11.803Z,14.60
2022-10-01T14:08:49.031Z,15.20
2022-10-01T14:09:24.252Z,14.52
2022-10-01T14:10:00.549Z,14.90
2022-10-01T14:10:36.941Z,14.60
2022-10-01T14:11:31.339Z,14.80
2022-10-01T14:12:26.510Z,14.80
2022-10-01T14:13:22.448Z,14.75
2022-10-01T14:14:15.793Z,14.50
2022-10-01T14:15:10.976Z,15.18
2022-10-01T14:16:03.448Z,13.88
2022-10-01T14:16:38.334Z,14.70
2022-10-01T14:17:13.792Z,14.70
2022-10-01T14:17:49.996Z,14.80
2022-10-01T14:18:28.849Z,14.75
2022-10-01T14:19:04.662Z,14.68
2022-10-01T14:19:38.927Z,14.50
2022-10-01T14:20:19.973Z,15.15
2022-10-01T14:20:59.006Z,15.95
2022-10-01T14:21:42.164Z,15.10
2022-10-01T14:22:20.346Z,15.18
2022-10-01T14:23:03.721Z,15.38
2022-10-01T14:23:40.844Z,14.18
2022-10-01T14:24:24.454Z,15.00
2022-10-01T14:25:24.375Z,14.35
2022-10-01T14:26:02.054Z,13.90
2022-10-01T14:26:39.037Z,14.82
2022-10-01T14:27:18.504Z,14.55
2022-10-01T14:28:01.654Z,15.10
2022-10-01T14:28:41.587Z,14.63
2022-10-01T14:29:19.750Z,45.40
2022-10-01T14:30:03.830Z,24.63
2022-10-01T14:30:41.310Z,19.80
2022-10-01T14:31:18.870Z,17.73
2022-10-01T14:32:00.351Z,15.07
2022-10-01T14:32:39.349Z,14.02
2022-10-01T14:33:29.433Z,15.15
2022-10-01T14:34:16.311Z,15.18
2022-10-01T14:35:00.837Z,14.25
2022-10-01T14:35:35.797Z,14.50
2022-10-01T14:36:13.796Z,15.23
2022-10-01T14:36:48.917Z,14.15
2022-10-01T14:37:24.029Z,15.68
2022-10-01T14:38:02.119Z,15.23
2022-10-01T14:38:36.785Z,15.63
2022-10-01T14:39:16.598Z,14.40
2022-10-01T14:40:01.888Z,14.40
2022-10-01T14:40:39.782Z,14.90
2022-10-01T14:41:19.657Z,14.73
2022-10-01T14:41:54.266Z,14.48
2022-10-01T14:42:29.019Z,14.57
2022-10-01T14:43:03.505Z,14.07
2022-10-01T14:43:42.183Z,14.70
2022-10-01T14:44:21.189Z,14.65
2022-10-01T14:44:57.719Z,14.68
2022-10-01T14:45:30.935Z,14.52
2022-10-01T14:46:06.169Z,14.80
2022-10-01T14:46:42.885Z,14.60
2022-10-01T14:47:20.377Z,14.85
2022-10-01T14:48:04.357Z,13.60
2022-10-01T14:48:41.012Z,14.90
2022-10-01T14:49:21.591Z,14.85
2022-10-01T14:49:57.581Z,14.20
2022-10-01T14:50:32.084Z,15.05
2022-10-01T14:51:07.423Z,14.35
2022-10-01T14:51:51.247Z,15.80
2022-10-01T14:52:27.396Z,15.02
2022-10-01T14:53:02.646Z,15.23
2022-10-01T14:53:37.936Z,14.93
2022-10-01T14:54:12.469Z,14.38
2022-10-01T14:54:48.817Z,14.45
2022-10-01T14:55:24.731Z,15.40
2022-10-01T14:56:07.116Z,15.30
2022-10-01T14:56:43.378Z,15.93
2022-10-01T14:57:21.176Z,15.32
2022-10-01T14:57:57.742Z,15.50
2022-10-01T14:58:34.288Z,15.70
2022-10-01T14:59:11.883Z,16.42
2022-10-01T14:59:50.253Z,15.48
2022-10-01T15:00:28.967Z,15.63
2022-10-01T15:01:04.549Z,14.70
2022-10-01T15:01:38.962Z,15.00
2022-10-01T15:02:19.057Z,15.68
2022-10-01T15:02:55.899Z,16.05
2022-10-01T15:03:37.628Z,15.48
2022-10-01T15:04:16.114Z,16.60
2022-10-01T15:04:53.509Z,15.93
2022-10-01T15:05:28.691Z,14.93
2022-10-01T15:06:05.322Z,15.95
2022-10-01T15:06:43.327Z,15.27
2022-10-01T15:07:18.458Z,15.98
2022-10-01T15:07:54.049Z,15.95
2022-10-01T15:08:37.190Z,16.17
2022-10-01T15:09:19.295Z,17.10
2022-10-01T15:09:53.925Z,15.50
2022-10-01T15:10:29.930Z,16.20
2022-10-01T15:11:06.983Z,15.93
2022-10-01T15:11:44.738Z,15.93
2022-10-01T15:12:21.723Z,16.08
2022-10-01T15:12:57.062Z,15.02
2022-10-01T15:13:35.925Z,15.82
2022-10-01T15:14:12.462Z,15.27
2022-10-01T15:14:47.580Z,15.77
2022-10-01T15:15:22.538Z,16.33
2022-10-01T15:15:57.611Z,16.00
2022-10-01T15:16:34.050Z,15.85
2022-10-01T15:17:09.536Z,15.77
2022-10-01T15:17:44.563Z,16.02
2022-10-01T15:18:20.703Z,16.63
2022-10-01T15:18:57.205Z,15.98
2022-10-01T15:19:31.862Z,16.02
2022-10-01T15:20:08.000Z,16.58
2022-10-01T15:20:51.640Z,16.15
2022-10-01T15:21:26.876Z,16.73
2022-10-01T15:22:02.824Z,16.70
2022-10-01T15:22:40.152Z,15.98
2022-10-01T15:23:15.494Z,15.70
2022-10-01T15:23:50.995Z,16.35
2022-10-01T15:24:27.919Z,16.77
2022-10-01T15:25:03.130Z,16.92
2022-10-01T15:25:37.453Z,16.63
2022-10-01T15:26:14.122Z,16.85
2022-10-01T15:26:49.989Z,16.92
2022-10-01T15:27:24.330Z,16.90
2022-10-01T15:28:00.603Z,17.05
2022-10-01T15:28:36.788Z,16.83
2022-10-01T15:29:15.646Z,17.27
2022-10-01T15:29:56.210Z,15.90
2022-10-01T15:30:32.994Z,16.33
2022-10-01T15:31:07.327Z,17.42
2022-10-01T15:31:41.203Z,16.35
2022-10-01T15:32:17.592Z,15.93
2022-10-01T15:32:51.818Z,16.80
2022-10-01T15:33:28.449Z,17.50
2022-10-01T15:34:04.124Z,17.70
2022-10-01T15:34:39.321Z,19.60
2022-10-01T15:35:20.566Z,19.25
2022-10-01T15:35:56.992Z,18.58
2022-10-01T15:36:32.351Z,16.83
2022-10-01T15:37:07.998Z,17.13
2022-10-01T15:37:45.712Z,17.88
2022-10-01T15:38:25.200Z,18.23
2022-10-01T15:39:01.335Z,18.40
2022-10-01T15:39:38.069Z,18.73
2022-10-01T15:40:28.023Z,19.58
2022-10-01T15:41:58.655Z,25.70
2022-10-01T15:42:34.512Z,27.40
2022-10-01T15:43:27.754Z,25.42
2022-10-01T15:44:04.325Z,24.50
2022-10-01T15:44:47.403Z,25.65
2022-10-01T15:45:26.585Z,25.35
2022-10-01T15:46:20.001Z,21.30
2022-10-01T15:46:54.324Z,21.45
2022-10-01T15:47:35.700Z,24.70
2022-10-01T15:48:29.507Z,25.08
2022-10-01T15:49:17.338Z,22.17
2022-10-01T15:50:17.154Z,25.00
2022-10-01T15:51:00.738Z,23.92
2022-10-01T15:51:34.684Z,25.30
2022-10-01T15:52:37.934Z,25.00
2022-10-01T15:53:18.834Z,24.65
2022-10-01T15:53:54.046Z,24.58
2022-10-01T15:54:29.062Z,24.85
2022-10-01T15:55:04.490Z,25.15
2022-10-01T15:55:42.108Z,25.33
2022-10-01T15:56:20.797Z,25.20
2022-10-01T15:56:55.583Z,24.48
2022-10-01T15:57:33.903Z,24.90
2022-10-01T15:58:15.128Z,25.15
2022-10-01T15:58:51.817Z,25.50
2022-10-01T15:59:27.608Z,24.40
2022-10-01T16:00:02.208Z,26.38
2022-10-01T16:00:45.644Z,22.42
2022-10-01T16:01:24.499Z,23.08
2022-10-01T16:01:58.470Z,22.90
2022-10-01T16:02:33.997Z,27.58
2022-10-01T16:03:20.368Z,28.95
2022-10-01T16:03:58.189Z,26.42
2022-10-01T16:04:31.013Z,29.75
2022-10-01T16:05:06.674Z,28.60
2022-10-01T16:05:49.707Z,27.67
2022-10-01T16:06:27.798Z,24.85
2022-10-01T16:07:02.649Z,25.40
2022-10-01T16:07:38.222Z,25.77
2022-10-01T16:08:22.170Z,25.83
2022-10-01T16:09:22.972Z,25.90
2022-10-01T16:09:59.353Z,25.70
2022-10-01T16:10:38.554Z,25.10
2022-10-01T16:11:20.588Z,24.27
2022-10-01T16:11:58.279Z,22.73
2022-10-01T16:12:33.589Z,22.90
2022-10-01T16:13:38.368Z,23.88
2022-10-01T16:14:25.221Z,25.75
2022-10-01T16:15:01.106Z,26.95
2022-10-01T16:15:35.853Z,26.45
2022-10-01T16:16:27.452Z,26.48
2022-10-01T16:17:27.079Z,26.27
2022-10-01T16:18:03.284Z,26.80
2022-10-01T16:18:39.196Z,27.25
2022-10-01T16:19:29.177Z,28.05
2022-10-01T16:20:46.830Z,28.95
2022-10-01T16:21:26.593Z,26.50
2022-10-01T16:22:22.561Z,26.23
2022-10-01T16:23:27.508Z,26.08
2022-10-01T16:24:02.562Z,26.20
2022-10-01T16:24:43.579Z,29.05
2022-10-01T16:25:33.398Z,27.45
2022-10-01T16:26:31.492Z,26.23
2022-10-01T16:27:15.889Z,25.80
2022-10-01T16:27:53.911Z,26.00
2022-10-01T16:28:30.692Z,26.95
2022-10-01T16:29:07.354Z,27.98
2022-10-01T16:29:42.364Z,26.00
2022-10-01T16:30:22.060Z,26.40
2022-10-01T16:30:56.561Z,26.25
2022-10-01T16:31:31.573Z,25.50
2022-10-01T16:32:06.809Z,25.42
2022-10-01T16:32:41.548Z,24.73
2022-10-01T16:33:16.290Z,27.30
2022-10-01T16:33:50.140Z,24.35
2022-10-01T16:34:25.137Z,26.05
2022-10-01T16:35:17.783Z,24.50
2022-10-01T16:35:51.846Z,23.85
2022-10-01T16:36:27.092Z,23.55
2022-10-01T16:37:01.868Z,24.35
2022-10-01T16:37:36.421Z,24.48
2022-10-01T16:38:10.423Z,23.92
2022-10-01T16:38:45.597Z,23.17
2022-10-01T16:39:19.476Z,24.08
2022-10-01T16:39:55.313Z,24.00
2022-10-01T16:40:32.139Z,32.88
2022-10-01T16:41:06.834Z,28.45
2022-10-01T16:41:42.803Z,28.83
2022-10-01T16:42:24.587Z,26.35
2022-10-01T16:42:58.680Z,23.55
2022-10-01T16:43:34.026Z,23.70
2022-10-01T16:44:07.852Z,23.77
2022-10-01T16:44:41.605Z,24.17
2022-10-01T16:45:19.046Z,23.33
2022-10-01T16:45:53.909Z,24.60
2022-10-01T16:46:26.459Z,24.63
2022-10-01T16:47:01.457Z,24.73
2022-10-01T16:47:41.019Z,24.17
2022-10-01T16:48:20.271Z,24.88
2022-10-01T16:48:52.857Z,25.77
2022-10-01T16:49:27.618Z,24.88
2022-10-01T16:50:02.077Z,24.27
2022-10-01T16:50:35.997Z,25.58
2022-10-01T16:51:11.462Z,24.83
2022-10-01T16:51:53.495Z,25.45
2022-10-01T16:52:28.028Z,25.88
2022-10-01T16:53:02.699Z,25.02
2022-10-01T16:53:37.044Z,24.27
2022-10-01T16:54:24.353Z,26.23
2022-10-01T16:54:58.909Z,25.55
2022-10-01T16:55:36.613Z,25.95
2022-10-01T16:56:11.326Z,27.63
2022-10-01T16:56:46.682Z,35.45
2022-10-01T16:57:20.595Z,26.30
2022-10-01T16:57:56.237Z,25.58
2022-10-01T16:58:30.645Z,26.30
2022-10-01T16:59:03.466Z,26.00
2022-10-01T16:59:40.464Z,25.02
2022-10-01T17:00:20.435Z,27.73
2022-10-01T17:00:53.861Z,26.90
2022-10-01T17:01:31.065Z,27.10
2022-10-01T17:02:05.344Z,28.20
2022-10-01T17:02:40.984Z,29.30
2022-10-01T17:03:17.763Z,27.92
2022-10-01T17:03:52.163Z,28.95
2022-10-01T17:04:33.510Z,29.88
2022-10-01T17:05:18.842Z,29.15
2022-10-01T17:05:54.429Z,29.67
2022-10-01T17:06:28.080Z,28.52
2022-10-01T17:07:04.811Z,29.30
2022-10-01T17:07:39.359Z,31.77
2022-10-01T17:08:12.872Z,32.15
2022-10-01T17:08:47.064Z,31.38
2022-10-01T17:09:20.906Z,32.38
2022-10-01T17:09:55.514Z,32.10
2022-10-01T17:10:31.756Z,34.15
2022-10-01T17:11:08.528Z,31.83
2022-10-01T17:11:47.744Z,32.65
2022-10-01T17:12:21.939Z,33.42
2022-10-01T17:12:56.348Z,33.47
2022-10-01T17:13:33.336Z,33.88
2022-10-01T17:14:08.833Z,33.63
2022-10-01T17:14:43.796Z,33.13
2022-10-01T17:15:20.761Z,33.35
2022-10-01T17:15:56.108Z,32.15
2022-10-01T17:16:31.113Z,33.20
2022-10-01T17:17:05.069Z,32.50
2022-10-01T17:17:41.616Z,32.45
2022-10-01T17:18:15.590Z,31.67
2022-10-01T17:18:49.189Z,32.05
2022-10-01T17:19:24.222Z,32.05
2022-10-01T17:19:58.212Z,32.42
2022-10-01T17:20:32.393Z,31.95
2022-10-01T17:21:08.211Z,31.13
2022-10-01T17:21:42.286Z,32.83
2022-10-01T17:22:18.830Z,31.88
2022-10-01T17:22:52.994Z,30.90
2022-10-01T17:23:28.496Z,31.88
2022-10-01T17:24:03.629Z,31.85
2022-10-01T17:24:40.888Z,31.88
2022-10-01T17:25:16.799Z,32.28
2022-10-01T17:25:51.180Z,32.78
2022-10-01T17:26:26.459Z,32.03
2022-10-01T17:27:00.868Z,30.23
2022-10-01T17:27:36.721Z,29.35
2022-10-01T17:28:14.582Z,30.27
2022-10-01T17:28:51.194Z,29.90
2022-10-01T17:29:25.441Z,30.55
2022-10-01T17:30:00.499Z,31.08
2022-10-01T17:30:34.254Z,28.45
2022-10-01T17:31:08.771Z,27.50
2022-10-01T17:31:44.817Z,27.48
2022-10-01T17:32:19.774Z,28.95
2022-10-01T17:32:53.709Z,28.08
2022-10-01T17:33:29.403Z,28.50
2022-10-01T17:34:06.202Z,27.73
2022-10-01T17:34:41.215Z,26.75
2022-10-01T17:35:16.612Z,26.65
2022-10-01T17:35:55.267Z,25.92
2022-10-01T17:36:29.754Z,24.80
2022-10-01T17:37:04.176Z,24.13
2022-10-01T17:37:39.300Z,25.02
2022-10-01T17:38:13.079Z,24.52
2022-10-01T17:38:48.591Z,29.55
2022-10-01T17:39:22.673Z,27.40
2022-10-01T17:39:56.330Z,23.95
2022-10-01T17:40:31.804Z,23.48
2022-10-01T17:41:06.819Z,23.50
2022-10-01T17:41:43.447Z,24.25
2022-10-01T17:42:18.724Z,23.83
2022-10-01T17:42:52.563Z,22.95
2022-10-01T17:43:27.277Z,23.92
2022-10-01T17:44:02.972Z,23.40
2022-10-01T17:44:37.530Z,22.17
2022-10-01T17:45:14.765Z,23.45
2022-10-01T17:45:57.706Z,22.08
2022-10-01T17:46:33.612Z,22.20
2022-10-01T17:47:12.129Z,24.33
2022-10-01T17:47:49.837Z,23.13
2022-10-01T17:48:23.904Z,22.33
2022-10-01T17:49:00.502Z,22.85
2022-10-01T17:49:35.385Z,22.27
2022-10-01T17:50:10.781Z,23.13
2022-10-01T17:50:45.191Z,22.90
2022-10-01T17:51:19.988Z,22.63
2022-10-01T17:51:55.284Z,25.25
2022-10-01T17:52:29.871Z,25.50
2022-10-01T17:53:06.842Z,23.33
2022-10-01T17:53:42.753Z,23.23
2022-10-01T17:54:20.536Z,23.30
2022-10-01T17:54:54.360Z,24.38
2022-10-01T17:55:29.696Z,23.70
2022-10-01T17:56:07.509Z,22.88
2022-10-01T17:56:44.808Z,23.17
2022-10-01T17:57:19.964Z,23.02
2022-10-01T17:57:54.865Z,24.30
2022-10-01T17:58:29.221Z,23.88
2022-10-01T17:59:04.979Z,23.35
2022-10-01T17:59:38.525Z,22.58
2022-10-01T18:00:27.823Z,22.95
2022-10-01T18:01:01.795Z,23.55
2022-10-01T18:01:36.838Z,24.00
2022-10-01T18:02:36.441Z,23.27
2022-10-01T18:03:08.111Z,24.27
2022-10-01T18:03:42.574Z,23.90
2022-10-01T18:04:17.894Z,24.10
2022-10-01T18:04:50.854Z,23.52
2022-10-01T18:05:25.109Z,25.05
2022-10-01T18:06:03.693Z,22.20
2022-10-01T18:06:38.413Z,22.73
2022-10-01T18:07:11.992Z,23.15
2022-10-01T18:07:47.077Z,24.05
2022-10-01T18:08:33.264Z,24.73
2022-10-01T18:09:17.469Z,24.63
2022-10-01T18:09:53.516Z,24.38
2022-10-01T18:10:27.097Z,24.10
2022-10-01T18:11:07.849Z,23.23
2022-10-01T18:11:42.217Z,24.70
2022-10-01T18:12:17.238Z,24.67
2022-10-01T18:12:51.037Z,25.42
2022-10-01T18:13:25.854Z,25.17
2022-10-01T18:14:01.475Z,26.80
2022-10-01T18:14:36.419Z,26.17
2022-10-01T18:15:11.308Z,29.13
2022-10-01T18:15:46.731Z,26.17
2022-10-01T18:16:20.071Z,25.67
2022-10-01T18:16:54.219Z,25.23
2022-10-01T18:17:29.195Z,25.10
2022-10-01T18:19:53.663Z,24.98
2022-10-01T18:20:30.519Z,25.45
2022-10-01T18:21:06.200Z,26.17
2022-10-01T18:21:41.807Z,24.35
2022-10-01T18:22:14.931Z,24.88
2022-10-01T18:22:49.787Z,25.15
2022-10-01T18:23:26.620Z,25.58
2022-10-01T18:24:04.776Z,25.23
2022-10-01T18:24:38.363Z,25.83
2022-10-01T18:25:14.046Z,24.70
2022-10-01T18:25:50.596Z,25.63
2022-10-01T18:26:24.389Z,24.65
2022-10-01T18:26:58.386Z,25.63
2022-10-01T18:27:32.440Z,24.60
2022-10-01T18:28:05.670Z,24.83
2022-10-01T18:28:40.319Z,24.42
2022-10-01T18:29:18.127Z,24.15
2022-10-01T18:29:52.004Z,24.45
2022-10-01T18:30:27.674Z,25.27
2022-10-01T18:31:19.429Z,25.63
2022-10-01T18:31:56.566Z,25.25
2022-10-01T18:32:39.795Z,24.70
2022-10-01T18:33:16.448Z,25.02
2022-10-01T18:33:52.754Z,24.60
2022-10-01T18:34:32.827Z,25.30
2022-10-01T18:35:18.960Z,24.77
2022-10-01T18:35:59.705Z,25.05
2022-10-01T18:36:42.833Z,25.92
2022-10-01T18:37:30.216Z,23.63
2022-10-01T18:38:10.466Z,24.27
2022-10-01T18:39:32.721Z,23.02
2022-10-01T18:40:11.718Z,23.33
2022-10-01T18:40:50.063Z,23.00
2022-10-01T18:41:32.759Z,25.35
2022-10-01T18:42:18.980Z,23.65
2022-10-01T18:42:58.020Z,23.65
2022-10-01T18:43:35.273Z,24.58
2022-10-01T18:44:19.381Z,23.92
2022-10-01T18:44:58.073Z,24.05
2022-10-01T18:45:48.266Z,24.33
2022-10-01T18:46:39.647Z,24.27
2022-10-01T18:47:25.600Z,23.52
2022-10-01T18:48:18.365Z,24.58
2022-10-01T18:49:03.058Z,24.92
2022-10-01T18:50:25.789Z,24.33
2022-10-01T18:51:06.498Z,24.58
2022-10-01T18:51:53.969Z,23.30
2022-10-01T18:52:39.037Z,24.50
2022-10-01T18:53:51.930Z,24.52
2022-10-01T18:54:50.338Z,20.15
2022-10-01T18:55:50.673Z,22.10
2022-10-01T18:56:31.055Z,22.80
2022-10-01T18:57:14.893Z,22.73
2022-10-01T18:58:02.675Z,21.35
2022-10-01T18:59:01.334Z,20.08
2022-10-01T19:00:03.425Z,18.70
2022-10-01T19:00:44.914Z,18.52
2022-10-01T19:01:30.695Z,15.77
2022-10-01T19:02:31.087Z,17.92
2022-10-01T19:03:29.590Z,16.73
2022-10-01T19:04:26.967Z,14.35
2022-10-01T19:05:28.946Z,14.93
2022-10-01T19:06:16.673Z,14.32
2022-10-01T19:07:03.944Z,14.75
2022-10-01T19:07:52.320Z,14.77
2022-10-01T19:08:41.840Z,14.30
2022-10-01T19:09:40.726Z,15.43
2022-10-01T19:10:24.252Z,15.32
2022-10-01T19:11:05.936Z,15.20
2022-10-01T19:11:48.791Z,15.20
2022-10-01T19:12:38.389Z,14.68
2022-10-01T19:13:21.529Z,14.75
2022-10-01T19:14:09.729Z,14.90
2022-10-01T19:14:56.616Z,15.07
2022-10-01T19:15:41.176Z,14.63
2022-10-01T19:16:24.372Z,14.13
2022-10-01T19:17:09.145Z,15.23
2022-10-01T19:17:51.666Z,14.80
2022-10-01T19:18:49.830Z,13.75
2022-10-01T19:19:35.584Z,13.55
2022-10-01T19:20:28.281Z,13.23
2022-10-01T19:21:16.527Z,13.82
2022-10-01T19:22:00.208Z,12.77
2022-10-01T19:22:42.864Z,12.45
2022-10-01T19:23:41.000Z,12.63
2022-10-01T19:24:55.798Z,10.20
2022-10-01T19:25:36.644Z,11.05
2022-10-01T19:26:18.585Z,11.70
2022-10-01T19:27:01.200Z,10.48
2022-10-01T19:27:49.332Z,9.55
2022-10-01T19:28:36.451Z,9.85
2022-10-01T19:29:28.753Z,9.65
2022-10-01T19:30:06.655Z,8.82
2022-10-01T19:30:59.597Z,10.15
2022-10-01T19:31:39.949Z,10.20
2022-10-01T19:32:21.028Z,10.35
2022-10-01T19:32:58.256Z,9.15
2022-10-01T19:33:37.161Z,10.40
2022-10-01T19:34:16.299Z,9.63
2022-10-01T19:34:55.372Z,9.45
2022-10-01T19:35:32.646Z,9.82
2022-10-01T19:36:09.259Z,9.18
2022-10-01T19:36:48.975Z,9.13
2022-10-01T19:37:31.514Z,9.68
2022-10-01T19:38:07.745Z,9.25
2022-10-01T19:38:43.184Z,8.73
2022-10-01T19:39:23.426Z,9.70
2022-10-01T19:40:42.299Z,8.73
2022-10-01T19:41:22.227Z,9.20
2022-10-01T19:42:01.352Z,10.05
2022-10-01T19:42:39.154Z,9.55
2022-10-01T19:43:19.857Z,10.52
2022-10-01T19:43:57.172Z,10.07
2022-10-01T19:44:37.530Z,9.38
2022-10-01T19:45:21.640Z,9.80
2022-10-01T19:46:02.216Z,9.13
2022-10-01T19:46:38.448Z,9.63
2022-10-01T19:47:24.901Z,8.68
2022-10-01T19:48:10.486Z,9.27
2022-10-01T19:48:51.781Z,9.38
2022-10-01T19:49:32.452Z,9.57
2022-10-01T19:50:22.045Z,9.75
2022-10-01T19:51:03.644Z,9.18
2022-10-01T19:51:41.531Z,9.65
2022-10-01T19:52:18.820Z,9.30
2022-10-01T19:52:57.948Z,9.23
2022-10-01T19:53:38.009Z,9.52
2022-10-01T19:54:17.607Z,9.07
2022-10-01T19:54:56.451Z,9.45
2022-10-01T19:55:38.853Z,9.55
2022-10-01T19:56:18.979Z,9.18
2022-10-01T19:56:56.885Z,9.30
2022-10-01T19:57:35.637Z,9.38
2022-10-01T19:58:17.747Z,9.02
2022-10-01T19:58:52.620Z,9.20
2022-10-01T19:59:30.081Z,9.30
2022-10-01T20:00:13.103Z,9.00
2022-10-01T20:00:51.507Z,9.48
2022-10-01T20:01:30.690Z,9.25
2022-10-01T20:02:12.962Z,9.27
2022-10-01T20:02:54.730Z,9.15
2022-10-01T20:03:39.518Z,9.27
2022-10-01T20:04:20.303Z,8.98
2022-10-01T20:05:01.071Z,9.35
2022-10-01T20:05:44.741Z,9.40
2022-10-01T20:06:25.566Z,9.77
2022-10-01T20:07:05.811Z,10.27
2022-10-01T20:08:29.610Z,9.32
2022-10-01T20:09:10.723Z,9.13
2022-10-01T20:09:46.457Z,9.35
2022-10-01T20:10:33.903Z,9.18
2022-10-01T20:11:22.446Z,9.57
2022-10-01T20:12:06.960Z,10.35
2022-10-01T20:12:47.449Z,9.90
2022-10-01T20:13:36.794Z,9.55
2022-10-01T20:14:41.404Z,9.25
2022-10-01T20:15:27.902Z,9.80
2022-10-01T20:16:12.276Z,9.27
2022-10-01T20:16:49.561Z,9.23
2022-10-01T20:17:32.846Z,8.88
2022-10-01T20:18:17.580Z,9.77
2022-10-01T20:18:57.699Z,10.23
2022-10-01T20:19:40.396Z,9.90
2022-10-01T20:20:22.681Z,10.38
2022-10-01T20:21:15.803Z,10.90
2022-10-01T20:21:59.751Z,9.85
2022-10-01T20:22:41.024Z,10.10
2022-10-01T20:23:33.960Z,10.43
2022-10-01T20:24:24.273Z,10.05
2022-10-01T20:25:05.048Z,10.55
2022-10-01T20:25:45.621Z,10.32
2022-10-01T20:26:30.487Z,10.40
2022-10-01T20:27:17.578Z,10.93
2022-10-01T20:28:02.629Z,10.45
2022-10-01T20:28:47.864Z,11.07
2022-10-01T20:29:33.425Z,11.13
2022-10-01T20:30:13.005Z,10.80
2022-10-01T20:30:58.734Z,11.10
2022-10-01T20:31:40.897Z,11.10
2022-10-01T20:32:19.523Z,10.70
2022-10-01T20:33:02.295Z,11.63
2022-10-01T20:33:46.283Z,11.07
2022-10-01T20:34:33.430Z,11.10
2022-10-01T20:35:22.943Z,10.95
2022-10-01T20:36:04.051Z,10.48
2022-10-01T20:36:44.412Z,11.48
2022-10-01T20:37:35.553Z,11.20
2022-10-01T20:38:15.547Z,10.57
2022-10-01T20:38:54.731Z,10.63
2022-10-01T20:39:32.209Z,10.40
2022-10-01T20:40:14.847Z,10.90
2022-10-01T20:40:54.485Z,10.90
2022-10-01T20:41:32.140Z,10.98
2022-10-01T20:42:06.937Z,10.77
2022-10-01T20:42:46.768Z,10.13
2022-10-01T20:43:32.006Z,9.82
2022-10-01T20:44:10.480Z,9.10
2022-10-01T20:44:46.372Z,10.13
2022-10-01T20:45:25.119Z,10.57
2022-10-01T20:46:04.451Z,9.50
2022-10-01T20:46:45.093Z,9.07
2022-10-01T20:47:26.212Z,9.43
2022-10-01T20:48:06.712Z,9.90
2022-10-01T20:48:45.451Z,9.10
2022-10-01T20:49:30.357Z,9.18
2022-10-01T20:50:09.645Z,10.50
2022-10-01T20:50:46.536Z,9.15
2022-10-01T20:51:30.289Z,9.00
2022-10-01T20:52:11.995Z,8.52
2022-10-01T20:52:53.779Z,9.40
2022-10-01T20:53:36.451Z,9.30
2022-10-01T20:54:15.000Z,8.77
2022-10-01T20:54:52.619Z,9.70
2022-10-01T20:55:37.786Z,9.13
2022-10-01T20:56:16.216Z,8.65
2022-10-01T20:57:00.768Z,8.30
2022-10-01T20:57:42.205Z,9.15
2022-10-01T20:58:20.595Z,9.38
2022-10-01T20:58:59.439Z,8.13
2022-10-01T20:59:38.001Z,8.60
2022-10-01T21:00:21.483Z,9.10
2022-10-01T21:01:06.037Z,8.43
2022-10-01T21:01:53.471Z,8.25
2022-10-01T21:02:35.101Z,9.15
2022-10-01T21:03:15.542Z,9.52
2022-10-01T21:03:54.906Z,8.90
2022-10-01T21:04:34.111Z,8.55
2022-10-01T21:05:15.789Z,8.85
2022-10-01T21:05:54.507Z,9.07
2022-10-01T21:06:36.170Z,8.95
2022-10-01T21:07:21.793Z,8.75
2022-10-01T21:08:02.087Z,9.10
2022-10-01T21:08:43.275Z,8.75
2022-10-01T21:09:25.205Z,8.43
2022-10-01T21:10:04.670Z,9.07
2022-10-01T21:10:44.486Z,9.63
2022-10-01T21:11:25.037Z,9.18
2022-10-01T21:12:07.135Z,8.40
2022-10-01T21:12:45.533Z,8.88
2022-10-01T21:13:26.926Z,8.07
2022-10-01T21:14:12.045Z,9.23
2022-10-01T21:14:50.114Z,8.20
2022-10-01T21:15:28.207Z,8.82
2022-10-01T21:16:15.385Z,8.55
2022-10-01T21:17:26.643Z,8.50
2022-10-01T21:18:10.410Z,8.38
2022-10-01T21:18:56.559Z,15.45
2022-10-01T21:19:53.982Z,11.80
2022-10-01T21:20:57.004Z,9.55
2022-10-01T21:21:46.812Z,10.40
2022-10-01T21:22:35.043Z,9.00
2022-10-01T21:23:24.784Z,8.57
2022-10-01T21:24:12.721Z,8.15
2022-10-01T21:24:58.464Z,8.35
2022-10-01T21:25:43.115Z,8.00
2022-10-01T21:26:26.121Z,7.78
2022-10-01T21:27:15.013Z,7.43
2022-10-01T21:28:19.362Z,7.75
2022-10-01T21:29:17.999Z,8.18
2022-10-01T21:30:08.504Z,8.00
2022-10-01T21:30:57.907Z,8.02
2022-10-01T21:31:46.885Z,8.77
2022-10-01T21:32:31.954Z,9.07
2022-10-01T21:33:17.108Z,8.82
2022-10-01T21:33:54.370Z,8.25
2022-10-01T21:34:38.857Z,8.90
2022-10-01T21:35:26.948Z,8.98
2022-10-01T21:36:08.061Z,8.38
2022-10-01T21:36:55.735Z,8.30
2022-10-01T21:37:34.643Z,7.88
2022-10-01T21:38:19.476Z,7.88
2022-10-01T21:38:58.978Z,8.40
2022-10-01T21:39:41.177Z,7.95
2022-10-01T21:40:25.395Z,8.35
2022-10-01T21:41:30.107Z,8.05
2022-10-01T21:42:16.203Z,7.93
2022-10-01T21:42:56.813Z,7.80
2022-10-01T21:43:45.718Z,7.88
2022-10-01T21:44:48.608Z,8.07
2022-10-01T21:45:34.693Z,7.18
2022-10-01T21:46:14.709Z,7.50
2022-10-01T21:46:55.427Z,7.82
2022-10-01T21:47:45.150Z,7.97
2022-10-01T21:48:33.052Z,8.65
2022-10-01T21:49:15.039Z,8.63
2022-10-01T21:50:02.686Z,8.88
2022-10-01T21:50:50.132Z,8.05
2022-10-01T21:51:36.051Z,8.75
2022-10-01T21:52:22.207Z,12.82
2022-10-01T21:53:17.170Z,8.20
2022-10-01T21:54:09.994Z,8.68
2022-10-01T21:55:02.506Z,8.13
2022-10-01T21:55:48.948Z,7.47
2022-10-01T21:56:55.728Z,7.80
2022-10-01T21:57:48.968Z,7.95
2022-10-01T21:58:36.517Z,7.32
2022-10-01T21:59:24.090Z,7.57
2022-10-01T22:00:16.119Z,7.45
2022-10-01T22:00:55.670Z,7.90
2022-10-01T22:01:50.423Z,7.90
2022-10-01T22:02:35.465Z,8.05
2022-10-01T22:03:19.249Z,7.55
2022-10-01T22:04:03.904Z,7.53
2022-10-01T22:04:47.885Z,8.10
2022-10-01T22:05:30.282Z,7.90
2022-10-01T22:06:12.296Z,7.90
2022-10-01T22:06:51.993Z,7.45
2022-10-01T22:07:33.215Z,7.60